KCLM/CLM METAR and TAF weather

Enter ICAO airport designator
Station Type Date Time Source
KCLM METAR 2019/08/21 22:11 UTC NOAA

KCLM 212211Z AUTO 29006KT 6SM -RA BR OVC007 16/16 A2998 RMK AO2 CIG 003V009 P0002 T01610156


Station Type Date Time Source
KCLM Decoded METAR 2019/08/21 22:11 UTC NOAA

Station name not available
Aug 21, 2019 - 06:11 PM EDT / 2019.08.21 2211 UTC
Wind: from the WNW (290 degrees) at 7 MPH (6 KT):0
Visibility: 6 mile(s):0
Sky conditions: overcast
Weather: light rain; mist
Precipitation last hour: 0.02 inches
Temperature: 61.0 F (16.1 C)
Dew Point: 60.1 F (15.6 C)
Relative Humidity: 96%
Pressure (altimeter): 29.98 in. Hg (1015 hPa)
ob: KCLM 212211Z AUTO 29006KT 6SM -RA BR OVC007 16/16 A2998 RMK AO2 CIG 003V009 P0002 T01610156
cycle: 22

Station Type Date Time Source
KCLM TAF 2019/08/21 20:16 UTC NOAA

TAF
AMD KCLM 212013Z 2120/2218 VRB03KT P6SM -RA BKN005 OVC018
TEMPO 2120/2122 3SM BR OVC005
FM212200 30006KT P6SM -SHRA BKN030 OVC060
FM220100 28010KT P6SM SCT030 BKN060
FM221500 30005KT P6SM SCT250

Example: see airport list